sensor_id;sensor_type;location;lat;lon;timestamp;temperature;humidity
23827;DHT22;12094;50.822;4.376;2023-05-07T00:02:05;17.10;99.90
23827;DHT22;12094;50.822;4.376;2023-05-07T00:04:34;17.10;99.90
23827;DHT22;12094;50.822;4.376;2023-05-07T00:07:07;17.10;99.90
23827;DHT22;12094;50.822;4.376;2023-05-07T00:09:37;17.20;99.90
23827;DHT22;12094;50.822;4.376;2023-05-07T00:12:10;17.20;99.90
23827;DHT22;12094;50.822;4.376;2023-05-07T00:14:37;17.30;99.90
23827;DHT22;12094;50.822;4.376;2023-05-07T00:17:07;17.20;99.90
23827;DHT22;12094;50.822;4.376;2023-05-07T00:19:39;17.10;99.90
23827;DHT22;12094;50.822;4.376;2023-05-07T00:22:07;17.00;99.90
23827;DHT22;12094;50.822;4.376;2023-05-07T00:24:36;16.90;99.90
23827;DHT22;12094;50.822;4.376;2023-05-07T00:27:03;16.80;99.90
23827;DHT22;12094;50.822;4.376;2023-05-07T00:29:30;16.80;99.90
23827;DHT22;12094;50.822;4.376;2023-05-07T00:31:57;16.70;99.90
23827;DHT22;12094;50.822;4.376;2023-05-07T00:34:25;16.70;99.90
23827;DHT22;12094;50.822;4.376;2023-05-07T00:36:56;16.80;99.90
23827;DHT22;12094;50.822;4.376;2023-05-07T00:43:57;17.00;99.90
23827;DHT22;12094;50.822;4.376;2023-05-07T00:46:24;17.00;99.90
23827;DHT22;12094;50.822;4.376;2023-05-07T00:48:53;17.10;99.90
23827;DHT22;12094;50.822;4.376;2023-05-07T00:51:21;17.20;99.90
23827;DHT22;12094;50.822;4.376;2023-05-07T00:53:51;17.30;99.90
23827;DHT22;12094;50.822;4.376;2023-05-07T00:56:22;17.30;99.90
23827;DHT22;12094;50.822;4.376;2023-05-07T00:58:51;17.30;99.90
23827;DHT22;12094;50.822;4.376;2023-05-07T01:01:18;17.20;99.90
23827;DHT22;12094;50.822;4.376;2023-05-07T01:03:47;17.30;99.90
23827;DHT22;12094;50.822;4.376;2023-05-07T01:06:16;17.30;99.90
23827;DHT22;12094;50.822;4.376;2023-05-07T01:08:45;17.30;99.90
23827;DHT22;12094;50.822;4.376;2023-05-07T01:11:13;17.20;99.90
23827;DHT22;12094;50.822;4.376;2023-05-07T01:13:43;17.20;99.90
23827;DHT22;12094;50.822;4.376;2023-05-07T01:16:12;17.20;99.90
23827;DHT22;12094;50.822;4.376;2023-05-07T01:18:42;17.20;99.90
23827;DHT22;12094;50.822;4.376;2023-05-07T01:21:15;17.20;99.90
23827;DHT22;12094;50.822;4.376;2023-05-07T01:23:45;17.20;99.90
23827;DHT22;12094;50.822;4.376;2023-05-07T01:26:14;17.10;99.90
23827;DHT22;12094;50.822;4.376;2023-05-07T01:28:44;17.00;99.90
23827;DHT22;12094;50.822;4.376;2023-05-07T01:31:12;17.00;99.90
23827;DHT22;12094;50.822;4.376;2023-05-07T01:33:44;17.10;99.90
23827;DHT22;12094;50.822;4.376;2023-05-07T01:36:13;17.00;99.90
23827;DHT22;12094;50.822;4.376;2023-05-07T01:38:43;17.00;99.90
23827;DHT22;12094;50.822;4.376;2023-05-07T01:41:12;16.90;99.90
23827;DHT22;12094;50.822;4.376;2023-05-07T01:43:43;16.90;99.90
23827;DHT22;12094;50.822;4.376;2023-05-07T01:46:11;16.80;99.90
23827;DHT22;12094;50.822;4.376;2023-05-07T01:48:39;16.90;99.90
23827;DHT22;12094;50.822;4.376;2023-05-07T01:51:08;16.90;99.90
23827;DHT22;12094;50.822;4.376;2023-05-07T01:53:46;16.80;99.90
23827;DHT22;12094;50.822;4.376;2023-05-07T01:56:22;16.80;99.90
23827;DHT22;12094;50.822;4.376;2023-05-07T01:59:17;16.80;99.90
23827;DHT22;12094;50.822;4.376;2023-05-07T02:01:50;16.80;99.90
23827;DHT22;12094;50.822;4.376;2023-05-07T02:04:28;16.90;99.90
23827;DHT22;12094;50.822;4.376;2023-05-07T02:11:22;16.80;99.90
23827;DHT22;12094;50.822;4.376;2023-05-07T02:13:50;16.70;99.90
23827;DHT22;12094;50.822;4.376;2023-05-07T02:16:18;16.70;99.90
23827;DHT22;12094;50.822;4.376;2023-05-07T02:18:48;16.80;99.90
23827;DHT22;12094;50.822;4.376;2023-05-07T02:21:27;16.70;99.90
23827;DHT22;12094;50.822;4.376;2023-05-07T02:23:59;16.70;99.90
23827;DHT22;12094;50.822;4.376;2023-05-07T02:26:27;16.70;99.90
23827;DHT22;12094;50.822;4.376;2023-05-07T02:28:56;16.60;99.90
23827;DHT22;12094;50.822;4.376;2023-05-07T02:31:23;16.60;99.90
23827;DHT22;12094;50.822;4.376;2023-05-07T02:33:51;16.50;99.90
23827;DHT22;12094;50.822;4.376;2023-05-07T02:36:19;16.60;99.90
23827;DHT22;12094;50.822;4.376;2023-05-07T02:38:54;16.60;99.90
23827;DHT22;12094;50.822;4.376;2023-05-07T02:41:21;16.60;99.90
23827;DHT22;12094;50.822;4.376;2023-05-07T02:48:16;16.50;99.90
23827;DHT22;12094;50.822;4.376;2023-05-07T02:50:43;16.50;99.90
23827;DHT22;12094;50.822;4.376;2023-05-07T02:53:13;16.50;99.90
23827;DHT22;12094;50.822;4.376;2023-05-07T02:55:40;16.40;99.90
23827;DHT22;12094;50.822;4.376;2023-05-07T02:58:10;16.50;99.90
23827;DHT22;12094;50.822;4.376;2023-05-07T03:00:39;16.40;99.90
23827;DHT22;12094;50.822;4.376;2023-05-07T03:03:20;16.50;99.90
23827;DHT22;12094;50.822;4.376;2023-05-07T03:05:50;16.40;99.90
23827;DHT22;12094;50.822;4.376;2023-05-07T03:08:18;16.50;99.90
23827;DHT22;12094;50.822;4.376;2023-05-07T03:10:46;16.50;99.90
23827;DHT22;12094;50.822;4.376;2023-05-07T03:13:13;16.70;99.90
23827;DHT22;12094;50.822;4.376;2023-05-07T03:15:40;16.60;99.90
23827;DHT22;12094;50.822;4.376;2023-05-07T03:18:08;16.60;99.90
23827;DHT22;12094;50.822;4.376;2023-05-07T03:20:36;16.70;99.90
23827;DHT22;12094;50.822;4.376;2023-05-07T03:23:05;16.80;99.90
23827;DHT22;12094;50.822;4.376;2023-05-07T03:25:32;16.70;99.90
23827;DHT22;12094;50.822;4.376;2023-05-07T03:28:00;16.70;99.90
23827;DHT22;12094;50.822;4.376;2023-05-07T03:30:41;16.70;99.90
23827;DHT22;12094;50.822;4.376;2023-05-07T03:33:08;16.80;99.90
23827;DHT22;12094;50.822;4.376;2023-05-07T03:35:36;16.80;99.90
23827;DHT22;12094;50.822;4.376;2023-05-07T03:38:05;16.60;99.90
23827;DHT22;12094;50.822;4.376;2023-05-07T03:40:36;16.70;99.90
23827;DHT22;12094;50.822;4.376;2023-05-07T03:43:04;16.70;99.90
23827;DHT22;12094;50.822;4.376;2023-05-07T03:45:34;16.80;99.90
23827;DHT22;12094;50.822;4.376;2023-05-07T03:48:14;16.80;99.90
23827;DHT22;12094;50.822;4.376;2023-05-07T03:50:42;16.70;99.90
23827;DHT22;12094;50.822;4.376;2023-05-07T03:53:10;16.70;99.90
23827;DHT22;12094;50.822;4.376;2023-05-07T03:55:38;16.70;99.90
23827;DHT22;12094;50.822;4.376;2023-05-07T03:58:06;16.80;99.90
23827;DHT22;12094;50.822;4.376;2023-05-07T04:00:33;16.90;99.90
23827;DHT22;12094;50.822;4.376;2023-05-07T04:03:14;16.90;99.90
23827;DHT22;12094;50.822;4.376;2023-05-07T04:05:41;16.90;99.90
23827;DHT22;12094;50.822;4.376;2023-05-07T04:08:10;16.90;99.90
23827;DHT22;12094;50.822;4.376;2023-05-07T04:10:41;17.00;99.90
23827;DHT22;12094;50.822;4.376;2023-05-07T04:13:11;17.10;99.90
23827;DHT22;12094;50.822;4.376;2023-05-07T04:15:38;17.10;99.90
23827;DHT22;12094;50.822;4.376;2023-05-07T04:18:11;17.10;99.90
23827;DHT22;12094;50.822;4.376;2023-05-07T04:20:41;17.20;99.90
23827;DHT22;12094;50.822;4.376;2023-05-07T04:23:18;17.20;99.90
23827;DHT22;12094;50.822;4.376;2023-05-07T04:25:45;17.20;99.90
23827;DHT22;12094;50.822;4.376;2023-05-07T04:28:22;17.20;99.90
23827;DHT22;12094;50.822;4.376;2023-05-07T04:30:50;17.00;99.90
23827;DHT22;12094;50.822;4.376;2023-05-07T04:33:19;16.80;99.90
23827;DHT22;12094;50.822;4.376;2023-05-07T04:35:47;16.70;99.90
23827;DHT22;12094;50.822;4.376;2023-05-07T04:38:15;16.70;99.90
23827;DHT22;12094;50.822;4.376;2023-05-07T04:40:47;16.70;99.90
23827;DHT22;12094;50.822;4.376;2023-05-07T04:43:19;16.70;99.90
23827;DHT22;12094;50.822;4.376;2023-05-07T04:45:51;16.60;99.90
23827;DHT22;12094;50.822;4.376;2023-05-07T04:48:25;16.60;99.90
23827;DHT22;12094;50.822;4.376;2023-05-07T04:50:54;16.60;99.90
23827;DHT22;12094;50.822;4.376;2023-05-07T04:53:22;16.70;99.90
23827;DHT22;12094;50.822;4.376;2023-05-07T04:55:56;16.90;99.90
23827;DHT22;12094;50.822;4.376;2023-05-07T04:58:27;17.00;99.90
23827;DHT22;12094;50.822;4.376;2023-05-07T05:00:54;17.00;99.90
23827;DHT22;12094;50.822;4.376;2023-05-07T05:03:23;16.90;99.90
23827;DHT22;12094;50.822;4.376;2023-05-07T05:05:51;16.80;99.90
23827;DHT22;12094;50.822;4.376;2023-05-07T05:08:20;16.80;99.90
23827;DHT22;12094;50.822;4.376;2023-05-07T05:10:49;17.00;99.90
23827;DHT22;12094;50.822;4.376;2023-05-07T05:13:17;17.20;99.90
23827;DHT22;12094;50.822;4.376;2023-05-07T05:15:45;17.30;99.90
23827;DHT22;12094;50.822;4.376;2023-05-07T05:18:13;17.30;99.90
23827;DHT22;12094;50.822;4.376;2023-05-07T05:20:40;17.30;99.90
23827;DHT22;12094;50.822;4.376;2023-05-07T05:23:11;17.30;99.90
23827;DHT22;12094;50.822;4.376;2023-05-07T05:25:38;17.30;99.90
23827;DHT22;12094;50.822;4.376;2023-05-07T05:28:11;17.30;99.90
23827;DHT22;12094;50.822;4.376;2023-05-07T05:30:39;17.50;99.90
23827;DHT22;12094;50.822;4.376;2023-05-07T05:33:07;17.70;99.90
23827;DHT22;12094;50.822;4.376;2023-05-07T05:35:36;17.80;99.90
23827;DHT22;12094;50.822;4.376;2023-05-07T05:38:10;17.70;99.90
23827;DHT22;12094;50.822;4.376;2023-05-07T05:40:40;17.50;99.90
23827;DHT22;12094;50.822;4.376;2023-05-07T05:43:11;17.50;99.90
23827;DHT22;12094;50.822;4.376;2023-05-07T05:45:38;17.50;99.90
23827;DHT22;12094;50.822;4.376;2023-05-07T05:48:06;17.50;99.90
23827;DHT22;12094;50.822;4.376;2023-05-07T05:50:34;17.50;99.90
23827;DHT22;12094;50.822;4.376;2023-05-07T05:53:06;17.40;99.90
23827;DHT22;12094;50.822;4.376;2023-05-07T05:55:33;17.40;99.90
23827;DHT22;12094;50.822;4.376;2023-05-07T05:58:01;17.40;99.90
23827;DHT22;12094;50.822;4.376;2023-05-07T06:00:30;17.50;99.90
23827;DHT22;12094;50.822;4.376;2023-05-07T06:03:02;17.50;99.90
23827;DHT22;12094;50.822;4.376;2023-05-07T06:05:33;17.40;99.90
23827;DHT22;12094;50.822;4.376;2023-05-07T06:08:02;17.40;99.90
23827;DHT22;12094;50.822;4.376;2023-05-07T06:10:33;17.30;99.90
23827;DHT22;12094;50.822;4.376;2023-05-07T06:13:04;17.50;99.90
23827;DHT22;12094;50.822;4.376;2023-05-07T06:15:33;17.30;99.90
23827;DHT22;12094;50.822;4.376;2023-05-07T06:18:07;17.20;99.90
23827;DHT22;12094;50.822;4.376;2023-05-07T06:20:34;17.30;99.90
23827;DHT22;12094;50.822;4.376;2023-05-07T06:23:07;17.40;99.90
23827;DHT22;12094;50.822;4.376;2023-05-07T06:25:50;17.40;99.90
23827;DHT22;12094;50.822;4.376;2023-05-07T06:37:20;16.70;99.90
23827;DHT22;12094;50.822;4.376;2023-05-07T06:43:40;17.00;99.90
23827;DHT22;12094;50.822;4.376;2023-05-07T06:46:31;17.10;99.90
23827;DHT22;12094;50.822;4.376;2023-05-07T06:49:10;17.10;99.90
23827;DHT22;12094;50.822;4.376;2023-05-07T06:51:48;17.00;99.90
23827;DHT22;12094;50.822;4.376;2023-05-07T06:54:35;17.00;99.90
23827;DHT22;12094;50.822;4.376;2023-05-07T06:57:38;17.00;99.90
23827;DHT22;12094;50.822;4.376;2023-05-07T07:04:49;16.60;99.90
23827;DHT22;12094;50.822;4.376;2023-05-07T07:07:58;16.50;99.90
23827;DHT22;12094;50.822;4.376;2023-05-07T07:10:35;16.50;99.90
23827;DHT22;12094;50.822;4.376;2023-05-07T07:13:11;16.30;99.90
23827;DHT22;12094;50.822;4.376;2023-05-07T07:16:20;16.40;99.90
23827;DHT22;12094;50.822;4.376;2023-05-07T07:22:28;16.50;99.90
23827;DHT22;12094;50.822;4.376;2023-05-07T07:29:07;16.50;99.90
23827;DHT22;12094;50.822;4.376;2023-05-07T07:32:11;16.60;99.90
23827;DHT22;12094;50.822;4.376;2023-05-07T07:35:29;16.40;99.90
23827;DHT22;12094;50.822;4.376;2023-05-07T07:39:07;16.50;99.90
23827;DHT22;12094;50.822;4.376;2023-05-07T07:42:16;16.50;99.90
23827;DHT22;12094;50.822;4.376;2023-05-07T07:45:32;16.30;99.90
23827;DHT22;12094;50.822;4.376;2023-05-07T07:48:59;16.40;99.90
23827;DHT22;12094;50.822;4.376;2023-05-07T07:55:50;16.40;99.90
23827;DHT22;12094;50.822;4.376;2023-05-07T08:02:42;16.60;99.90
23827;DHT22;12094;50.822;4.376;2023-05-07T08:09:51;16.80;99.90
23827;DHT22;12094;50.822;4.376;2023-05-07T08:12:31;16.90;99.90
23827;DHT22;12094;50.822;4.376;2023-05-07T08:15:48;16.80;99.90
23827;DHT22;12094;50.822;4.376;2023-05-07T08:18:31;16.90;99.90
23827;DHT22;12094;50.822;4.376;2023-05-07T08:25:45;16.60;99.90
23827;DHT22;12094;50.822;4.376;2023-05-07T08:28:53;16.70;99.90
23827;DHT22;12094;50.822;4.376;2023-05-07T08:35:19;16.90;99.90
23827;DHT22;12094;50.822;4.376;2023-05-07T08:38:13;17.10;99.90
23827;DHT22;12094;50.822;4.376;2023-05-07T08:41:10;17.10;99.90
23827;DHT22;12094;50.822;4.376;2023-05-07T08:44:22;17.10;99.90
23827;DHT22;12094;50.822;4.376;2023-05-07T08:47:06;17.20;99.90
23827;DHT22;12094;50.822;4.376;2023-05-07T08:50:13;17.30;99.90
23827;DHT22;12094;50.822;4.376;2023-05-07T08:53:04;17.30;99.90
23827;DHT22;12094;50.822;4.376;2023-05-07T08:55:32;17.40;99.90
23827;DHT22;12094;50.822;4.376;2023-05-07T08:58:21;17.50;99.90
23827;DHT22;12094;50.822;4.376;2023-05-07T09:00:54;17.30;99.90
23827;DHT22;12094;50.822;4.376;2023-05-07T09:03:22;17.40;99.90
23827;DHT22;12094;50.822;4.376;2023-05-07T09:05:53;17.40;99.90
23827;DHT22;12094;50.822;4.376;2023-05-07T09:08:25;17.20;99.90
23827;DHT22;12094;50.822;4.376;2023-05-07T09:11:12;17.10;99.90
23827;DHT22;12094;50.822;4.376;2023-05-07T09:14:04;17.20;99.90
23827;DHT22;12094;50.822;4.376;2023-05-07T09:16:46;17.40;99.90
23827;DHT22;12094;50.822;4.376;2023-05-07T09:19:34;17.60;99.90
23827;DHT22;12094;50.822;4.376;2023-05-07T09:22:20;17.70;99.90
23827;DHT22;12094;50.822;4.376;2023-05-07T09:25:10;18.00;99.90
23827;DHT22;12094;50.822;4.376;2023-05-07T09:28:08;17.70;99.90
23827;DHT22;12094;50.822;4.376;2023-05-07T09:33:41;17.50;99.90
23827;DHT22;12094;50.822;4.376;2023-05-07T09:36:53;17.20;99.90
23827;DHT22;12094;50.822;4.376;2023-05-07T09:39:47;17.10;99.90
23827;DHT22;12094;50.822;4.376;2023-05-07T09:42:44;17.10;99.90
23827;DHT22;12094;50.822;4.376;2023-05-07T09:45:48;17.10;99.90
23827;DHT22;12094;50.822;4.376;2023-05-07T09:48:38;17.30;99.90
23827;DHT22;12094;50.822;4.376;2023-05-07T09:51:30;17.70;99.90
23827;DHT22;12094;50.822;4.376;2023-05-07T09:54:10;18.10;99.90
23827;DHT22;12094;50.822;4.376;2023-05-07T09:56:45;18.40;99.90
23827;DHT22;12094;50.822;4.376;2023-05-07T10:03:41;17.50;99.90
23827;DHT22;12094;50.822;4.376;2023-05-07T10:10:32;17.20;99.90
23827;DHT22;12094;50.822;4.376;2023-05-07T10:13:33;17.00;99.90
23827;DHT22;12094;50.822;4.376;2023-05-07T10:16:23;17.20;99.90
23827;DHT22;12094;50.822;4.376;2023-05-07T10:18:55;17.30;99.90
23827;DHT22;12094;50.822;4.376;2023-05-07T10:21:39;17.20;99.90
23827;DHT22;12094;50.822;4.376;2023-05-07T10:24:48;17.20;99.90
23827;DHT22;12094;50.822;4.376;2023-05-07T10:27:50;17.10;99.90
23827;DHT22;12094;50.822;4.376;2023-05-07T10:33:10;17.00;99.90
23827;DHT22;12094;50.822;4.376;2023-05-07T10:36:01;17.00;99.90
23827;DHT22;12094;50.822;4.376;2023-05-07T10:39:19;17.00;99.90
23827;DHT22;12094;50.822;4.376;2023-05-07T10:42:11;17.00;99.90
23827;DHT22;12094;50.822;4.376;2023-05-07T10:45:14;17.10;99.90
23827;DHT22;12094;50.822;4.376;2023-05-07T10:48:16;17.20;99.90
23827;DHT22;12094;50.822;4.376;2023-05-07T10:51:21;17.20;99.90
23827;DHT22;12094;50.822;4.376;2023-05-07T10:54:21;17.50;99.90
23827;DHT22;12094;50.822;4.376;2023-05-07T10:57:38;17.50;99.90
23827;DHT22;12094;50.822;4.376;2023-05-07T11:03:09;18.00;99.90
23827;DHT22;12094;50.822;4.376;2023-05-07T11:06:16;17.80;99.90
23827;DHT22;12094;50.822;4.376;2023-05-07T11:08:57;18.00;99.90
23827;DHT22;12094;50.822;4.376;2023-05-07T11:11:54;18.20;99.90
23827;DHT22;12094;50.822;4.376;2023-05-07T11:14:46;18.60;99.90
23827;DHT22;12094;50.822;4.376;2023-05-07T11:17:30;18.80;99.90
23827;DHT22;12094;50.822;4.376;2023-05-07T11:26:27;18.10;99.90
23827;DHT22;12094;50.822;4.376;2023-05-07T11:29:17;17.90;99.90
23827;DHT22;12094;50.822;4.376;2023-05-07T11:32:25;17.80;99.90
23827;DHT22;12094;50.822;4.376;2023-05-07T11:35:23;17.80;99.90
23827;DHT22;12094;50.822;4.376;2023-05-07T11:38:23;17.80;99.90
23827;DHT22;12094;50.822;4.376;2023-05-07T11:45:08;17.80;99.90
23827;DHT22;12094;50.822;4.376;2023-05-07T11:48:27;18.00;99.90
23827;DHT22;12094;50.822;4.376;2023-05-07T11:51:30;18.00;99.90
23827;DHT22;12094;50.822;4.376;2023-05-07T11:54:22;18.20;99.90
23827;DHT22;12094;50.822;4.376;2023-05-07T11:56:56;18.30;99.90
23827;DHT22;12094;50.822;4.376;2023-05-07T12:00:00;18.30;99.90
23827;DHT22;12094;50.822;4.376;2023-05-07T12:03:18;18.30;99.90
23827;DHT22;12094;50.822;4.376;2023-05-07T12:06:19;18.30;99.90
23827;DHT22;12094;50.822;4.376;2023-05-07T12:09:06;18.20;99.90
23827;DHT22;12094;50.822;4.376;2023-05-07T12:12:07;18.20;99.90
23827;DHT22;12094;50.822;4.376;2023-05-07T12:18:31;19.00;99.90
23827;DHT22;12094;50.822;4.376;2023-05-07T12:21:14;19.60;99.90
23827;DHT22;12094;50.822;4.376;2023-05-07T12:24:04;20.00;99.90
23827;DHT22;12094;50.822;4.376;2023-05-07T12:26:48;19.90;99.90
23827;DHT22;12094;50.822;4.376;2023-05-07T12:29:34;19.80;99.90
23827;DHT22;12094;50.822;4.376;2023-05-07T12:32:18;19.60;99.90
23827;DHT22;12094;50.822;4.376;2023-05-07T12:35:03;19.20;99.90
23827;DHT22;12094;50.822;4.376;2023-05-07T12:37:58;19.40;99.90
23827;DHT22;12094;50.822;4.376;2023-05-07T12:40:41;19.10;99.90
23827;DHT22;12094;50.822;4.376;2023-05-07T12:43:28;19.50;99.90
23827;DHT22;12094;50.822;4.376;2023-05-07T12:46:01;20.00;99.90
23827;DHT22;12094;50.822;4.376;2023-05-07T12:48:29;20.20;99.90
23827;DHT22;12094;50.822;4.376;2023-05-07T12:50:58;20.10;99.90
23827;DHT22;12094;50.822;4.376;2023-05-07T12:53:27;20.30;99.90
23827;DHT22;12094;50.822;4.376;2023-05-07T12:55:57;20.40;99.90
23827;DHT22;12094;50.822;4.376;2023-05-07T13:00:52;20.20;99.90
23827;DHT22;12094;50.822;4.376;2023-05-07T13:03:47;20.00;99.90
23827;DHT22;12094;50.822;4.376;2023-05-07T13:06:11;19.90;99.90
23827;DHT22;12094;50.822;4.376;2023-05-07T13:08:41;19.80;99.90
23827;DHT22;12094;50.822;4.376;2023-05-07T13:11:12;19.50;99.90
23827;DHT22;12094;50.822;4.376;2023-05-07T13:13:41;19.40;99.90
23827;DHT22;12094;50.822;4.376;2023-05-07T13:16:10;19.50;99.90
23827;DHT22;12094;50.822;4.376;2023-05-07T13:18:39;19.20;99.90
23827;DHT22;12094;50.822;4.376;2023-05-07T13:21:07;19.20;99.90
23827;DHT22;12094;50.822;4.376;2023-05-07T13:23:35;19.30;99.90
23827;DHT22;12094;50.822;4.376;2023-05-07T13:26:02;19.10;99.90
23827;DHT22;12094;50.822;4.376;2023-05-07T13:28:41;19.00;99.90
23827;DHT22;12094;50.822;4.376;2023-05-07T13:31:08;19.00;99.90
23827;DHT22;12094;50.822;4.376;2023-05-07T13:33:35;19.20;99.90
23827;DHT22;12094;50.822;4.376;2023-05-07T13:36:03;19.10;99.90
23827;DHT22;12094;50.822;4.376;2023-05-07T13:38:35;19.00;99.90
23827;DHT22;12094;50.822;4.376;2023-05-07T13:41:05;19.20;99.90
23827;DHT22;12094;50.822;4.376;2023-05-07T13:43:32;19.50;99.90
23827;DHT22;12094;50.822;4.376;2023-05-07T13:46:03;19.50;99.90
23827;DHT22;12094;50.822;4.376;2023-05-07T13:48:31;19.00;99.90
23827;DHT22;12094;50.822;4.376;2023-05-07T13:50:58;18.90;99.90
23827;DHT22;12094;50.822;4.376;2023-05-07T13:53:26;18.90;99.90
23827;DHT22;12094;50.822;4.376;2023-05-07T13:55:54;19.10;99.90
23827;DHT22;12094;50.822;4.376;2023-05-07T13:58:22;19.10;99.90
23827;DHT22;12094;50.822;4.376;2023-05-07T14:00:49;19.30;99.90
23827;DHT22;12094;50.822;4.376;2023-05-07T14:03:16;19.60;99.90
23827;DHT22;12094;50.822;4.376;2023-05-07T14:05:45;19.50;99.90
23827;DHT22;12094;50.822;4.376;2023-05-07T14:08:16;19.50;99.90
23827;DHT22;12094;50.822;4.376;2023-05-07T14:10:46;19.30;99.90
23827;DHT22;12094;50.822;4.376;2023-05-07T14:13:13;19.30;99.90
23827;DHT22;12094;50.822;4.376;2023-05-07T14:15:40;19.20;99.90
23827;DHT22;12094;50.822;4.376;2023-05-07T14:18:09;19.40;99.90
23827;DHT22;12094;50.822;4.376;2023-05-07T14:20:36;19.70;99.90
23827;DHT22;12094;50.822;4.376;2023-05-07T14:23:05;19.80;99.90
23827;DHT22;12094;50.822;4.376;2023-05-07T14:25:32;19.90;99.90
23827;DHT22;12094;50.822;4.376;2023-05-07T14:28:01;19.90;99.90
23827;DHT22;12094;50.822;4.376;2023-05-07T14:30:30;20.00;99.90
23827;DHT22;12094;50.822;4.376;2023-05-07T14:32:58;20.10;99.90
23827;DHT22;12094;50.822;4.376;2023-05-07T14:35:28;20.00;99.90
23827;DHT22;12094;50.822;4.376;2023-05-07T14:37:59;19.70;99.90
23827;DHT22;12094;50.822;4.376;2023-05-07T14:40:29;19.30;99.90
23827;DHT22;12094;50.822;4.376;2023-05-07T14:42:56;19.20;99.90
23827;DHT22;12094;50.822;4.376;2023-05-07T14:45:28;19.20;99.90
23827;DHT22;12094;50.822;4.376;2023-05-07T14:51:17;19.40;99.90
23827;DHT22;12094;50.822;4.376;2023-05-07T14:53:47;19.50;99.90
23827;DHT22;12094;50.822;4.376;2023-05-07T14:56:16;19.30;99.90
23827;DHT22;12094;50.822;4.376;2023-05-07T14:58:47;19.20;99.90
23827;DHT22;12094;50.822;4.376;2023-05-07T15:01:14;19.00;99.90
23827;DHT22;12094;50.822;4.376;2023-05-07T15:03:43;18.80;99.90
23827;DHT22;12094;50.822;4.376;2023-05-07T15:06:12;18.60;99.90
23827;DHT22;12094;50.822;4.376;2023-05-07T15:08:47;18.50;99.90
23827;DHT22;12094;50.822;4.376;2023-05-07T15:11:17;18.50;99.90
23827;DHT22;12094;50.822;4.376;2023-05-07T15:13:45;18.40;99.90
23827;DHT22;12094;50.822;4.376;2023-05-07T15:16:12;18.40;99.90
23827;DHT22;12094;50.822;4.376;2023-05-07T15:18:40;18.40;99.90
23827;DHT22;12094;50.822;4.376;2023-05-07T15:21:07;18.40;99.90
23827;DHT22;12094;50.822;4.376;2023-05-07T15:23:36;18.30;99.90
23827;DHT22;12094;50.822;4.376;2023-05-07T15:26:04;18.20;99.90
23827;DHT22;12094;50.822;4.376;2023-05-07T15:28:32;18.20;99.90
23827;DHT22;12094;50.822;4.376;2023-05-07T15:30:59;18.10;99.90
23827;DHT22;12094;50.822;4.376;2023-05-07T15:33:28;18.10;99.90
23827;DHT22;12094;50.822;4.376;2023-05-07T15:35:55;18.10;99.90
23827;DHT22;12094;50.822;4.376;2023-05-07T15:38:26;18.10;99.90
23827;DHT22;12094;50.822;4.376;2023-05-07T15:40:54;18.20;99.90
23827;DHT22;12094;50.822;4.376;2023-05-07T15:43:22;18.20;99.90
23827;DHT22;12094;50.822;4.376;2023-05-07T15:45:49;18.20;99.90
23827;DHT22;12094;50.822;4.376;2023-05-07T15:48:17;18.20;99.90
23827;DHT22;12094;50.822;4.376;2023-05-07T15:50:45;18.20;99.90
23827;DHT22;12094;50.822;4.376;2023-05-07T15:53:19;18.30;99.90
23827;DHT22;12094;50.822;4.376;2023-05-07T15:55:46;18.20;99.90
23827;DHT22;12094;50.822;4.376;2023-05-07T15:58:15;18.10;99.90
23827;DHT22;12094;50.822;4.376;2023-05-07T16:00:46;18.00;99.90
23827;DHT22;12094;50.822;4.376;2023-05-07T16:03:14;17.90;99.90
23827;DHT22;12094;50.822;4.376;2023-05-07T16:05:42;17.90;99.90
23827;DHT22;12094;50.822;4.376;2023-05-07T16:08:09;17.90;99.90
23827;DHT22;12094;50.822;4.376;2023-05-07T16:10:36;18.00;99.90
23827;DHT22;12094;50.822;4.376;2023-05-07T16:13:06;17.80;99.90
23827;DHT22;12094;50.822;4.376;2023-05-07T16:15:33;17.90;99.90
23827;DHT22;12094;50.822;4.376;2023-05-07T16:21:34;17.90;99.90
23827;DHT22;12094;50.822;4.376;2023-05-07T16:24:02;17.90;99.90
23827;DHT22;12094;50.822;4.376;2023-05-07T16:26:29;17.90;99.90
23827;DHT22;12094;50.822;4.376;2023-05-07T16:28:56;17.90;99.90
23827;DHT22;12094;50.822;4.376;2023-05-07T16:31:24;18.00;99.90
23827;DHT22;12094;50.822;4.376;2023-05-07T16:33:56;18.00;99.90
23827;DHT22;12094;50.822;4.376;2023-05-07T16:36:26;18.00;99.90
23827;DHT22;12094;50.822;4.376;2023-05-07T16:38:55;18.00;99.90
23827;DHT22;12094;50.822;4.376;2023-05-07T16:41:23;18.00;99.90
23827;DHT22;12094;50.822;4.376;2023-05-07T16:43:50;17.90;99.90
23827;DHT22;12094;50.822;4.376;2023-05-07T16:46:18;18.00;99.90
23827;DHT22;12094;50.822;4.376;2023-05-07T16:48:45;18.00;99.90
23827;DHT22;12094;50.822;4.376;2023-05-07T16:51:12;18.00;99.90
23827;DHT22;12094;50.822;4.376;2023-05-07T16:53:40;17.90;99.90
23827;DHT22;12094;50.822;4.376;2023-05-07T16:56:07;17.90;99.90
23827;DHT22;12094;50.822;4.376;2023-05-07T16:58:37;17.90;99.90
23827;DHT22;12094;50.822;4.376;2023-05-07T17:01:05;17.90;99.90
23827;DHT22;12094;50.822;4.376;2023-05-07T17:03:32;18.00;99.90
23827;DHT22;12094;50.822;4.376;2023-05-07T17:06:00;18.00;99.90
23827;DHT22;12094;50.822;4.376;2023-05-07T17:08:27;17.90;99.90
23827;DHT22;12094;50.822;4.376;2023-05-07T17:10:54;17.90;99.90
23827;DHT22;12094;50.822;4.376;2023-05-07T17:13:21;18.00;99.90
23827;DHT22;12094;50.822;4.376;2023-05-07T17:15:48;18.00;99.90
23827;DHT22;12094;50.822;4.376;2023-05-07T17:18:15;17.90;99.90
23827;DHT22;12094;50.822;4.376;2023-05-07T17:20:42;17.90;99.90
23827;DHT22;12094;50.822;4.376;2023-05-07T17:23:09;17.90;99.90
23827;DHT22;12094;50.822;4.376;2023-05-07T17:25:36;17.90;99.90
23827;DHT22;12094;50.822;4.376;2023-05-07T17:28:16;17.80;99.90
23827;DHT22;12094;50.822;4.376;2023-05-07T17:31:12;17.90;99.90
23827;DHT22;12094;50.822;4.376;2023-05-07T17:33:43;17.90;99.90
23827;DHT22;12094;50.822;4.376;2023-05-07T17:36:10;17.90;99.90
23827;DHT22;12094;50.822;4.376;2023-05-07T17:38:37;17.90;99.90
23827;DHT22;12094;50.822;4.376;2023-05-07T17:41:06;17.80;99.90
23827;DHT22;12094;50.822;4.376;2023-05-07T17:43:33;17.90;99.90
23827;DHT22;12094;50.822;4.376;2023-05-07T17:46:28;17.90;99.90
23827;DHT22;12094;50.822;4.376;2023-05-07T17:48:57;17.90;99.90
23827;DHT22;12094;50.822;4.376;2023-05-07T17:51:25;17.80;99.90
23827;DHT22;12094;50.822;4.376;2023-05-07T17:54:09;17.80;99.90
23827;DHT22;12094;50.822;4.376;2023-05-07T17:56:37;17.80;99.90
23827;DHT22;12094;50.822;4.376;2023-05-07T17:59:04;17.80;99.90
23827;DHT22;12094;50.822;4.376;2023-05-07T18:01:32;17.80;99.90
23827;DHT22;12094;50.822;4.376;2023-05-07T18:04:01;17.80;99.90